Orbital elements of SL-12 R/B(2)
| Launched | 27 December 1979 |
| Flight ended | – |
| Launch site | Tyuratam Missile and Space Center, Kazakhstan (Also known as Baikonur Cosmodrome) |
| Owner | Commonwealth of Independent States (former USSR) |
| NORAD ID | 11684 |
| Date fetched |
Epoch osculation |
Inc. [°] |
Ecc. | RA asc node [hr] |
Arg Peri. [°] |
Mean anom [°] |
Mean motion [rev/day] |
Abs. mag |
| Date fetched |
Epoch osculation |
Inc. [°] |
Ecc. | RA asc node [hr] |
Arg Peri. [°] |
Mean anom [°] |
Mean motion [rev/day] |
Abs. mag |
| 2026 May 05 17:57 | 2026 May 05 07:02:33 | 6.9578 | 0.00174 | 19.5010 | 311.3339 | 233.3362 | 0.98688 | – |
| 2026 May 04 17:57 | 2026 Apr 30 09:22:56 | 6.9700 | 0.00174 | 19.5038 | 311.3357 | 233.3362 | 0.98688 | – |
| 2026 May 03 17:57 | 2026 Apr 30 09:22:56 | 6.9700 | 0.00174 | 19.5038 | 311.3357 | 233.3362 | 0.98688 | – |
| 2026 May 02 17:57 | 2026 Apr 30 09:22:56 | 6.9700 | 0.00174 | 19.5038 | 311.3357 | 233.3362 | 0.98688 | – |
| 2026 May 01 17:56 | 2026 Apr 30 09:22:56 | 6.9700 | 0.00174 | 19.5038 | 311.3357 | 233.3362 | 0.98688 | – |
| 2026 Apr 30 17:56 | 2026 Apr 30 09:22:56 | 6.9700 | 0.00174 | 19.5038 | 311.3357 | 233.3362 | 0.98688 | – |
| 2026 Apr 29 17:57 | 2026 Apr 24 09:09:01 | 6.9847 | 0.00173 | 19.5071 | 311.3717 | 233.3362 | 0.98688 | – |
| 2026 Apr 28 17:56 | 2026 Apr 24 09:09:01 | 6.9847 | 0.00173 | 19.5071 | 311.3717 | 233.3362 | 0.98688 | – |
| 2026 Apr 27 17:58 | 2026 Apr 24 09:09:01 | 6.9847 | 0.00173 | 19.5071 | 311.3717 | 233.3362 | 0.98688 | – |
| 2026 Apr 26 17:58 | 2026 Apr 24 09:09:01 | 6.9847 | 0.00173 | 19.5071 | 311.3717 | 233.3362 | 0.98688 | – |
| 2026 Apr 25 17:58 | 2026 Apr 24 09:09:01 | 6.9847 | 0.00173 | 19.5071 | 311.3717 | 233.3362 | 0.98688 | – |
| 2026 Apr 24 17:59 | 2026 Apr 24 09:09:01 | 6.9847 | 0.00173 | 19.5071 | 311.3717 | 233.3362 | 0.98688 | – |
| 2026 Apr 23 17:57 | 2026 Apr 19 13:31:36 | 6.9961 | 0.00174 | 19.5099 | 311.5457 | 233.3362 | 0.98688 | – |
| 2026 Apr 22 17:57 | 2026 Apr 19 13:31:36 | 6.9961 | 0.00174 | 19.5099 | 311.5457 | 233.3362 | 0.98688 | – |
| 2026 Apr 21 17:57 | 2026 Apr 19 13:31:36 | 6.9961 | 0.00174 | 19.5099 | 311.5457 | 233.3362 | 0.98688 | – |
| 2026 Apr 20 17:57 | 2026 Apr 19 13:31:36 | 6.9961 | 0.00174 | 19.5099 | 311.5457 | 233.3362 | 0.98688 | – |
| 2026 Apr 19 17:58 | 2026 Apr 19 13:31:36 | 6.9961 | 0.00174 | 19.5099 | 311.5457 | 233.3362 | 0.98688 | – |
| 2026 Apr 18 17:56 | 2026 Apr 13 03:31:38 | 7.0116 | 0.00175 | 19.5135 | 311.8041 | 233.3362 | 0.98688 | – |
| 2026 Apr 16 17:57 | 2026 Apr 13 03:31:38 | 7.0116 | 0.00175 | 19.5135 | 311.8041 | 233.3362 | 0.98688 | – |
| 2026 Apr 14 17:57 | 2026 Apr 13 03:31:38 | 7.0116 | 0.00175 | 19.5135 | 311.8041 | 233.3362 | 0.98688 | – |
| 2026 Apr 13 17:57 | 2026 Apr 13 03:31:38 | 7.0116 | 0.00175 | 19.5135 | 311.8041 | 233.3362 | 0.98688 | – |
| 2026 Apr 12 17:57 | 2026 Apr 08 12:20:19 | 7.0229 | 0.00176 | 19.5161 | 311.8263 | 233.3362 | 0.98688 | – |
| 2026 Apr 11 17:57 | 2026 Apr 08 12:20:19 | 7.0229 | 0.00176 | 19.5161 | 311.8263 | 233.3362 | 0.98688 | – |
| 2026 Apr 10 17:58 | 2026 Apr 08 12:20:19 | 7.0229 | 0.00176 | 19.5161 | 311.8263 | 233.3362 | 0.98688 | – |
| 2026 Apr 09 18:01 | 2026 Apr 08 12:20:19 | 7.0229 | 0.00176 | 19.5161 | 311.8263 | 233.3362 | 0.98688 | – |
| 2026 Apr 08 17:57 | 2026 Apr 08 12:20:19 | 7.0229 | 0.00176 | 19.5161 | 311.8263 | 233.3362 | 0.98688 | – |